Time;durP1;ratioP1;P1;durP2;ratioP2;P2;SDS_P1;SDS_P2;PMS_P1;PMS_P2;Temp;Humidity;BMP_temperature;BMP_pressure;BME280_temperature;BME280_humidity;BME280_pressure;Samples;Min_cycle;Max_cycle;Signal;HPM_P1;HPM_P2
2023/06/22 00:00:55;;;;;;;10.67;7.30;;;;;;;23.74;66.42;99378.78;4940777;28;20425;-74
2023/06/22 00:03:22;;;;;;;10.23;8.93;;;;;;;23.77;66.35;99375.72;4937938;28;20439;-74
2023/06/22 00:05:49;;;;;;;13.13;8.77;;;;;;;23.75;66.09;99362.50;4924026;28;20567;-75
2023/06/22 00:08:15;;;;;;;11.73;9.40;;;;;;;23.72;66.33;99373.59;4946428;28;20464;-74
2023/06/22 00:10:41;;;;;;;9.90;7.60;;;;;;;23.68;66.21;99374.94;4950630;28;20781;-74
2023/06/22 00:13:08;;;;;;;12.10;8.47;;;;;;;23.63;66.63;99364.81;4941893;28;20444;-74
2023/06/22 00:15:33;;;;;;;10.03;9.00;;;;;;;23.57;66.71;99354.84;4940992;28;20802;-75
2023/06/22 00:18:00;;;;;;;11.37;9.47;;;;;;;23.44;67.12;99364.53;4935071;28;20428;-74
2023/06/22 00:20:29;;;;;;;10.77;8.10;;;;;;;23.36;67.33;99374.38;4937283;28;20229;-74
2023/06/22 00:22:56;;;;;;;9.97;8.97;;;;;;;23.30;67.38;99368.91;4940950;28;20477;-74
2023/06/22 00:25:21;;;;;;;12.83;9.47;;;;;;;23.20;67.73;99358.47;4947220;28;20508;-74
2023/06/22 00:27:47;;;;;;;10.63;8.63;;;;;;;23.11;67.94;99363.09;4943941;28;20435;-74
2023/06/22 00:30:13;;;;;;;10.10;8.37;;;;;;;23.06;68.15;99378.91;4925317;28;20248;-75
2023/06/22 00:32:38;;;;;;;11.30;8.70;;;;;;;23.07;68.37;99364.47;4943228;28;20205;-75
2023/06/22 00:35:06;;;;;;;11.70;9.30;;;;;;;23.08;68.27;99354.59;4928783;29;20435;-74
2023/06/22 00:37:31;;;;;;;9.03;7.63;;;;;;;23.09;68.32;99370.50;4925041;29;20436;-74
2023/06/22 00:39:58;;;;;;;9.87;7.50;;;;;;;23.07;68.15;99371.69;4926377;29;20208;-74
2023/06/22 00:42:24;;;;;;;15.40;10.20;;;;;;;23.03;68.33;99371.22;4941883;28;20850;-74
2023/06/22 00:44:49;;;;;;;11.40;8.40;;;;;;;23.03;68.11;99365.84;4946749;28;20848;-74
2023/06/22 00:47:17;;;;;;;12.43;8.63;;;;;;;23.04;68.12;99383.59;4941927;28;20240;-74
2023/06/22 00:49:43;;;;;;;9.93;7.77;;;;;;;23.04;67.93;99397.00;4919448;28;20449;-74
2023/06/22 00:52:13;;;;;;;20.43;11.00;;;;;;;23.05;67.80;99366.50;4936702;28;20469;-74
2023/06/22 00:54:45;;;;;;;14.33;8.70;;;;;;;23.02;67.69;99358.84;4943080;28;20879;-74
2023/06/22 00:57:15;;;;;;;18.70;9.53;;;;;;;23.01;67.86;99378.63;4942163;28;20546;-75
2023/06/22 00:59:45;;;;;;;10.87;8.10;;;;;;;22.95;67.99;99387.34;4924804;29;20840;-75
2023/06/22 01:02:10;;;;;;;12.80;9.77;;;;;;;22.92;68.29;99379.66;4940411;28;20864;-75
2023/06/22 01:04:37;;;;;;;13.20;10.90;;;;;;;22.92;68.96;99380.50;4939419;28;20482;-75
2023/06/22 01:07:07;;;;;;;12.50;8.97;;;;;;;22.91;69.03;99392.22;4945686;28;20210;-75
2023/06/22 01:09:39;;;;;;;13.93;10.20;;;;;;;22.90;68.93;99361.13;4951837;28;20890;-78
2023/06/22 01:12:08;;;;;;;13.83;10.50;;;;;;;22.87;68.70;99366.84;4922776;29;21065;-74
2023/06/22 01:14:43;;;;;;;13.30;9.47;;;;;;;22.84;68.84;99372.53;4940591;28;21012;-76
2023/06/22 01:17:12;;;;;;;13.37;9.60;;;;;;;22.82;68.89;99371.06;4925911;29;20456;-75
2023/06/22 01:19:55;;;;;;;18.10;9.57;;;;;;;22.80;68.64;99362.41;4942029;28;20747;-76
2023/06/22 01:26:17;;;;;;;13.77;10.70;;;;;;;22.63;69.36;99367.06;4942914;28;20852;-75
2023/06/22 01:28:52;;;;;;;16.07;10.30;;;;;;;22.59;69.53;99347.84;4923750;29;20510;-76
2023/06/22 01:31:23;;;;;;;13.30;10.30;;;;;;;22.45;70.05;99332.59;4923180;28;20433;-75
2023/06/22 01:33:54;;;;;;;11.13;10.03;;;;;;;22.31;70.51;99342.25;4939034;28;20459;-76
2023/06/22 01:36:21;;;;;;;14.80;9.53;;;;;;;22.22;70.90;99357.50;4923384;29;20811;-75
2023/06/22 01:38:47;;;;;;;14.27;10.80;;;;;;;22.20;71.26;99356.88;4941583;28;20465;-75
2023/06/22 01:41:13;;;;;;;21.63;12.47;;;;;;;22.20;71.08;99348.03;4946137;28;20448;-76
2023/06/22 01:43:39;;;;;;;13.03;10.20;;;;;;;22.16;71.22;99334.13;4943608;28;20491;-75
2023/06/22 01:46:05;;;;;;;14.00;10.33;;;;;;;22.09;71.32;99322.50;4942341;28;20701;-76
2023/06/22 01:48:32;;;;;;;12.63;9.30;;;;;;;22.06;71.33;99336.22;4956270;28;20469;-75
2023/06/22 01:50:57;;;;;;;13.07;9.43;;;;;;;22.05;71.65;99337.22;4944167;28;20750;-77
2023/06/22 01:53:23;;;;;;;15.50;9.97;;;;;;;22.05;71.76;99343.41;4942998;28;20422;-75
2023/06/22 01:55:51;;;;;;;16.57;10.00;;;;;;;22.06;71.41;99334.38;4928114;28;20197;-75
2023/06/22 01:58:17;;;;;;;14.93;9.80;;;;;;;22.02;71.29;99329.56;4931256;28;20867;-75
2023/06/22 02:01:17;;;;;;;11.60;8.20;;;;;;;21.92;71.60;99321.75;4933013;28;20200;-77
2023/06/22 02:04:02;;;;;;;13.37;9.47;;;;;;;21.88;71.86;99337.34;4943487;28;20225;-76
2023/06/22 02:06:35;;;;;;;13.80;8.77;;;;;;;21.86;71.63;99334.00;4938626;28;20439;-75
2023/06/22 02:09:05;;;;;;;13.57;9.90;;;;;;;21.87;71.48;99329.47;4944392;29;20530;-76
2023/06/22 02:11:32;;;;;;;15.50;8.87;;;;;;;21.85;71.63;99320.84;4926536;29;20467;-75
2023/06/22 02:13:58;;;;;;;19.83;9.50;;;;;;;21.75;71.74;99312.19;4945364;29;20505;-74
2023/06/22 02:16:25;;;;;;;10.23;8.10;;;;;;;21.73;72.04;99312.38;4924677;28;20584;-75
2023/06/22 02:18:51;;;;;;;14.30;9.60;;;;;;;21.73;72.13;99323.06;4944272;29;20438;-76
2023/06/22 02:21:20;;;;;;;13.43;10.23;;;;;;;21.73;71.69;99316.88;4942279;29;20905;-76
2023/06/22 02:23:46;;;;;;;14.07;9.07;;;;;;;21.73;71.89;99317.72;4943033;28;20539;-75
2023/06/22 02:26:12;;;;;;;11.43;7.93;;;;;;;21.72;71.54;99308.03;4942414;28;20809;-76
2023/06/22 02:28:37;;;;;;;12.97;9.03;;;;;;;21.71;71.77;99314.41;4941716;28;20236;-76
2023/06/22 02:31:03;;;;;;;10.73;8.40;;;;;;;21.71;71.56;99316.22;4943028;28;21014;-75
2023/06/22 02:33:28;;;;;;;14.27;8.30;;;;;;;21.72;71.33;99305.38;4941172;29;20214;-76
2023/06/22 02:35:54;;;;;;;14.27;9.57;;;;;;;21.76;71.38;99295.97;4937763;29;20965;-75
2023/06/22 02:38:24;;;;;;;11.00;8.33;;;;;;;21.79;71.27;99292.97;4933387;28;20204;-75
2023/06/22 02:40:51;;;;;;;13.50;7.47;;;;;;;21.81;71.08;99284.75;4943045;29;20468;-75
2023/06/22 02:43:16;;;;;;;12.80;7.17;;;;;;;21.79;71.15;99290.28;4940660;29;20460;-75
2023/06/22 02:45:43;;;;;;;18.17;7.90;;;;;;;21.77;70.81;99292.31;4944007;29;20209;-76
2023/06/22 02:48:10;;;;;;;15.00;10.33;;;;;;;21.78;70.74;99290.47;4924725;28;20441;-76
2023/06/22 02:50:35;;;;;;;16.63;7.80;;;;;;;21.78;70.49;99285.94;4922103;28;20420;-76
2023/06/22 02:53:02;;;;;;;11.70;8.43;;;;;;;21.81;70.54;99287.44;4919603;29;20202;-75
2023/06/22 02:55:31;;;;;;;15.13;8.30;;;;;;;21.82;70.53;99289.94;4927641;29;20949;-75
2023/06/22 02:57:59;;;;;;;15.37;8.80;;;;;;;21.82;70.34;99283.75;4924511;29;20463;-75
2023/06/22 03:00:30;;;;;;;10.50;8.37;;;;;;;21.81;70.16;99282.06;4927069;29;20438;-76
2023/06/22 03:02:55;;;;;;;10.07;7.67;;;;;;;21.82;70.25;99278.41;4921306;28;20425;-75
2023/06/22 03:05:21;;;;;;;15.57;8.40;;;;;;;21.82;70.10;99281.91;4947197;28;20820;-76
2023/06/22 03:07:47;;;;;;;13.13;7.70;;;;;;;21.81;69.80;99277.56;4921824;28;20754;-76
2023/06/22 03:10:14;;;;;;;7.30;6.60;;;;;;;21.78;70.00;99280.59;4928679;28;20454;-76
2023/06/22 03:12:40;;;;;;;11.70;8.23;;;;;;;21.72;70.13;99278.63;4929412;28;20649;-75
2023/06/22 03:15:07;;;;;;;13.07;6.90;;;;;;;21.67;70.16;99281.00;4924737;29;20893;-75
2023/06/22 03:17:34;;;;;;;7.60;6.23;;;;;;;21.63;70.33;99277.03;4942233;28;20789;-75
2023/06/22 03:19:59;;;;;;;14.10;6.90;;;;;;;21.60;70.07;99285.38;4927539;29;20746;-76
2023/06/22 03:22:25;;;;;;;11.00;7.13;;;;;;;21.59;70.45;99279.22;4948818;28;20434;-75
2023/06/22 03:24:50;;;;;;;8.80;7.60;;;;;;;21.61;70.19;99287.06;4945483;28;20274;-76
2023/06/22 03:27:16;;;;;;;10.33;6.53;;;;;;;21.65;70.03;99275.00;4924942;28;20395;-75
2023/06/22 03:29:41;;;;;;;9.43;6.80;;;;;;;21.67;69.97;99269.47;4948423;28;20242;-75
2023/06/22 03:32:06;;;;;;;7.23;5.63;;;;;;;21.68;70.04;99271.97;4945041;28;20208;-75
2023/06/22 03:34:35;;;;;;;8.50;6.60;;;;;;;21.70;69.59;99266.44;4944264;28;20717;-75
2023/06/22 03:37:01;;;;;;;12.00;8.00;;;;;;;21.69;69.66;99262.94;4941373;28;20232;-75
2023/06/22 03:39:27;;;;;;;9.27;6.37;;;;;;;21.68;69.75;99263.94;4921457;29;20517;-76
2023/06/22 03:41:52;;;;;;;11.27;7.53;;;;;;;21.70;70.01;99266.44;4939505;28;20441;-76
2023/06/22 03:44:18;;;;;;;10.80;7.47;;;;;;;21.72;69.72;99265.25;4926805;28;20223;-77
2023/06/22 03:46:43;;;;;;;13.00;8.33;;;;;;;21.73;69.66;99260.75;4926066;29;20203;-77
2023/06/22 03:49:08;;;;;;;9.00;5.97;;;;;;;21.74;69.72;99265.94;4947588;28;20737;-77
2023/06/22 03:51:34;;;;;;;15.00;9.13;;;;;;;21.74;69.38;99265.94;4944770;28;20207;-76
2023/06/22 03:53:59;;;;;;;10.20;8.60;;;;;;;21.76;69.63;99260.38;4938718;28;20190;-76
2023/06/22 03:56:25;;;;;;;12.07;9.80;;;;;;;21.79;69.76;99268.03;4947673;28;20257;-76
2023/06/22 03:58:50;;;;;;;12.80;9.50;;;;;;;21.82;69.53;99265.03;4927002;28;21082;-75
2023/06/22 04:01:17;;;;;;;12.70;9.07;;;;;;;21.87;69.66;99259.97;4926872;28;20200;-76
2023/06/22 04:03:42;;;;;;;14.38;11.32;;;;;;;21.93;69.96;99258.41;4936907;28;20475;-78
2023/06/22 04:06:08;;;;;;;12.73;10.50;;;;;;;21.98;69.76;99270.25;4935491;28;20695;-77
2023/06/22 04:08:34;;;;;;;16.90;11.60;;;;;;;22.00;69.92;99259.38;4937338;28;20686;-77
2023/06/22 04:10:59;;;;;;;16.10;10.27;;;;;;;22.01;69.74;99267.22;4933972;28;20207;-77
2023/06/22 04:13:24;;;;;;;13.33;11.53;;;;;;;22.03;69.90;99275.88;4924524;28;20258;-77
2023/06/22 04:15:50;;;;;;;13.30;9.33;;;;;;;22.08;69.69;99272.69;4946756;28;20209;-76
2023/06/22 04:18:15;;;;;;;15.73;11.67;;;;;;;22.13;69.78;99274.81;4936704;28;20296;-76
2023/06/22 04:20:41;;;;;;;13.67;10.70;;;;;;;22.14;69.29;99266.59;4935225;28;20250;-78
2023/06/22 04:23:06;;;;;;;14.37;9.30;;;;;;;22.14;69.44;99274.63;4938630;28;20251;-76
2023/06/22 04:25:31;;;;;;;14.00;9.77;;;;;;;22.17;69.52;99273.44;4940781;28;20218;-77
2023/06/22 04:27:57;;;;;;;17.77;12.97;;;;;;;22.19;69.29;99269.59;4939502;28;20196;-76
2023/06/22 04:30:23;;;;;;;24.37;12.00;;;;;;;22.19;69.41;99272.28;4929786;28;20242;-76
2023/06/22 04:32:57;;;;;;;19.10;11.87;;;;;;;22.21;69.40;99272.09;4937207;28;20201;-76
2023/06/22 04:35:24;;;;;;;18.87;11.23;;;;;;;22.19;69.17;99277.63;4937811;28;20197;-76
2023/06/22 04:37:50;;;;;;;20.33;11.10;;;;;;;22.19;69.65;99279.47;4946852;28;20932;-76
2023/06/22 04:40:15;;;;;;;19.17;12.50;;;;;;;22.21;69.69;99278.28;4943343;28;20472;-76
2023/06/22 04:42:51;;;;;;;19.90;13.37;;;;;;;22.29;69.57;99280.88;4937494;28;20212;-76
2023/06/22 04:45:17;;;;;;;17.27;11.87;;;;;;;22.41;68.98;99281.25;4940633;28;20227;-77
2023/06/22 04:47:42;;;;;;;16.33;10.80;;;;;;;22.54;68.91;99286.00;4941476;28;20845;-77
2023/06/22 04:50:08;;;;;;;20.73;12.97;;;;;;;22.62;68.47;99280.56;4939059;28;20225;-76
2023/06/22 04:52:33;;;;;;;21.73;13.90;;;;;;;22.70;68.52;99279.66;4946350;28;20248;-76
2023/06/22 04:55:00;;;;;;;17.23;12.93;;;;;;;22.82;68.09;99280.88;4942071;28;20205;-76
2023/06/22 04:57:31;;;;;;;20.23;11.70;;;;;;;22.97;68.09;99281.69;4948302;28;20847;-76
2023/06/22 04:59:57;;;;;;;14.70;11.80;;;;;;;23.19;67.20;99277.25;4946708;28;20842;-77
2023/06/22 05:02:27;;;;;;;16.07;11.90;;;;;;;23.48;66.89;99272.03;4948240;28;20957;-76
2023/06/22 05:04:56;;;;;;;25.03;12.60;;;;;;;23.71;65.99;99270.03;4941414;28;20293;-76
2023/06/22 05:07:25;;;;;;;19.20;14.40;;;;;;;23.90;65.53;99260.53;4948557;28;20456;-76
2023/06/22 05:09:50;;;;;;;16.67;12.67;;;;;;;24.10;65.01;99255.34;4944216;28;20469;-77
2023/06/22 05:12:16;;;;;;;18.57;12.53;;;;;;;24.30;64.53;99258.16;4946062;28;20516;-76
2023/06/22 05:14:41;;;;;;;19.30;12.93;;;;;;;24.51;63.76;99266.19;4950410;28;20566;-76
2023/06/22 05:17:13;;;;;;;16.60;12.23;;;;;;;24.68;63.26;99244.41;4950691;28;20220;-76
2023/06/22 05:19:39;;;;;;;17.60;12.60;;;;;;;24.82;62.84;99256.06;4944564;28;20203;-76
2023/06/22 05:22:06;;;;;;;13.40;10.67;;;;;;;24.86;62.52;99251.94;4943179;28;20460;-76
2023/06/22 05:24:31;;;;;;;18.47;11.67;;;;;;;24.89;62.57;99252.38;4941753;28;20665;-76
2023/06/22 05:26:57;;;;;;;24.90;14.47;;;;;;;24.90;62.29;99253.22;4946301;28;20543;-78
2023/06/22 05:29:22;;;;;;;19.57;13.77;;;;;;;24.84;62.59;99248.63;4935765;28;20214;-76
2023/06/22 05:31:49;;;;;;;18.23;12.23;;;;;;;24.82;62.74;99251.53;4946016;28;20207;-77
2023/06/22 05:34:14;;;;;;;15.80;12.33;;;;;;;24.84;62.76;99249.44;4944841;28;20209;-76
2023/06/22 05:36:39;;;;;;;16.20;12.00;;;;;;;24.90;62.64;99243.31;4943068;28;20480;-76
2023/06/22 05:39:13;;;;;;;20.67;13.40;;;;;;;25.10;62.03;99231.81;4947449;28;20215;-76
2023/06/22 05:41:39;;;;;;;14.70;10.83;;;;;;;25.36;61.21;99241.88;4951115;28;20277;-77
2023/06/22 05:44:04;;;;;;;18.67;12.10;;;;;;;25.63;60.66;99239.22;4939948;28;20947;-77
2023/06/22 05:46:30;;;;;;;16.97;12.70;;;;;;;25.89;60.14;99233.06;4943459;28;20213;-76
2023/06/22 05:48:55;;;;;;;19.70;13.00;;;;;;;26.15;59.06;99238.47;4944221;28;20277;-77
2023/06/22 05:51:20;;;;;;;17.67;12.93;;;;;;;26.39;58.48;99225.41;4939370;28;20209;-76
2023/06/22 05:53:49;;;;;;;18.50;12.87;;;;;;;26.45;58.12;99221.88;4944068;28;20202;-77
2023/06/22 05:56:15;;;;;;;15.33;12.80;;;;;;;26.24;58.23;99220.22;4945362;28;20304;-78
2023/06/22 05:58:40;;;;;;;21.30;14.20;;;;;;;26.05;58.69;99236.19;4945316;28;20880;-78
2023/06/22 06:01:06;;;;;;;13.90;12.40;;;;;;;25.96;58.93;99233.91;4941432;28;20476;-77
2023/06/22 06:03:31;;;;;;;21.70;15.77;;;;;;;25.83;59.44;99246.31;4945800;28;20198;-77
2023/06/22 06:05:56;;;;;;;19.43;15.87;;;;;;;25.67;59.94;99249.38;4942844;28;20451;-77
2023/06/22 06:08:22;;;;;;;16.13;13.20;;;;;;;25.53;60.05;99259.28;4944113;28;20202;-77
2023/06/22 06:10:47;;;;;;;16.33;13.10;;;;;;;25.41;60.70;99258.22;4942553;28;20602;-77
2023/06/22 06:13:13;;;;;;;16.77;14.40;;;;;;;25.31;60.96;99260.47;4946925;28;20234;-77
2023/06/22 06:15:38;;;;;;;19.40;12.67;;;;;;;25.28;61.18;99260.88;4946407;28;20683;-77
2023/06/22 06:18:05;;;;;;;16.60;13.13;;;;;;;25.33;61.01;99282.56;4942494;28;20291;-77
2023/06/22 06:20:31;;;;;;;18.63;12.20;;;;;;;25.36;61.12;99282.19;4951976;28;20210;-78
2023/06/22 06:22:56;;;;;;;16.40;13.33;;;;;;;25.53;60.79;99274.59;4942282;28;20445;-77
2023/06/22 06:25:22;;;;;;;16.87;13.40;;;;;;;25.80;60.00;99273.59;4945226;28;20923;-77
2023/06/22 06:27:50;;;;;;;13.17;10.87;;;;;;;25.97;59.54;99271.38;4946974;28;20338;-77
2023/06/22 06:30:16;;;;;;;15.13;12.07;;;;;;;26.13;59.17;99283.59;4944439;28;20352;-77
2023/06/22 06:32:43;;;;;;;15.60;11.83;;;;;;;26.23;58.60;99294.78;4947046;28;20902;-77
2023/06/22 06:35:10;;;;;;;13.95;11.40;;;;;;;26.30;58.65;99294.78;4948670;28;20427;-79
2023/06/22 06:37:37;;;;;;;16.77;12.40;;;;;;;26.35;58.34;99291.47;4943149;28;20229;-77
2023/06/22 06:40:11;;;;;;;13.17;11.87;;;;;;;26.30;58.24;99293.97;4939982;28;20482;-77
2023/06/22 06:42:40;;;;;;;15.63;11.53;;;;;;;26.19;58.03;99304.34;4946759;28;20547;-77
2023/06/22 06:45:06;;;;;;;12.00;10.73;;;;;;;26.04;58.71;99307.22;4948403;28;20826;-76
2023/06/22 06:47:31;;;;;;;14.67;10.33;;;;;;;25.91;59.07;99315.25;4949654;28;20629;-77
2023/06/22 06:49:57;;;;;;;20.40;11.23;;;;;;;25.81;59.29;99325.56;4949577;28;20440;-77
2023/06/22 06:52:23;;;;;;;13.70;11.50;;;;;;;25.75;59.47;99343.34;4947891;28;20201;-77
2023/06/22 06:54:48;;;;;;;17.33;10.37;;;;;;;25.64;59.38;99365.44;4948626;28;20231;-77
2023/06/22 06:57:15;;;;;;;13.93;10.60;;;;;;;25.55;60.17;99391.69;4947922;28;20236;-76
2023/06/22 06:59:41;;;;;;;16.03;10.77;;;;;;;25.49;60.44;99415.84;4956406;28;20214;-78
2023/06/22 07:02:06;;;;;;;14.30;10.47;;;;;;;25.38;60.66;99401.97;4949751;28;20913;-76
2023/06/22 07:04:32;;;;;;;13.17;8.90;;;;;;;25.24;60.72;99365.25;4944358;28;21007;-78
2023/06/22 07:07:00;;;;;;;9.40;8.33;;;;;;;25.12;61.16;99337.25;4946101;28;20762;-77
2023/06/22 07:09:26;;;;;;;12.33;11.03;;;;;;;24.99;61.51;99327.25;4951357;28;20208;-77
2023/06/22 07:11:51;;;;;;;11.40;8.80;;;;;;;24.96;61.95;99341.09;4950996;28;20458;-77
2023/06/22 07:14:17;;;;;;;14.87;9.97;;;;;;;25.04;61.55;99342.78;4951396;28;20557;-76
2023/06/22 07:16:42;;;;;;;18.13;10.47;;;;;;;25.27;60.93;99334.47;4952222;28;20216;-76
2023/06/22 07:19:07;;;;;;;18.47;10.87;;;;;;;25.54;60.39;99320.09;4948567;28;20209;-76
2023/06/22 07:21:33;;;;;;;11.90;8.60;;;;;;;25.81;59.47;99325.56;4943567;28;20626;-76
2023/06/22 07:23:58;;;;;;;13.53;9.93;;;;;;;25.97;58.70;99357.50;4944441;28;20227;-76
2023/06/22 07:26:24;;;;;;;13.63;9.63;;;;;;;26.09;58.74;99349.66;4944590;28;20897;-78
2023/06/22 07:28:50;;;;;;;14.27;10.20;;;;;;;26.21;58.46;99329.16;4947943;28;20204;-77
2023/06/22 07:31:16;;;;;;;11.17;8.73;;;;;;;26.22;57.71;99330.00;4942962;28;20271;-76
2023/06/22 07:33:41;;;;;;;13.80;10.30;;;;;;;26.20;58.10;99381.38;4946407;28;20497;-77
2023/06/22 07:36:07;;;;;;;16.40;11.27;;;;;;;26.20;57.95;99367.91;4935560;28;20210;-77
2023/06/22 07:38:34;;;;;;;15.60;12.40;;;;;;;26.17;57.83;99343.28;4951654;28;20340;-76
2023/06/22 07:41:00;;;;;;;12.90;9.17;;;;;;;26.12;58.04;99364.59;4951783;28;20948;-76
2023/06/22 07:43:25;;;;;;;16.40;10.50;;;;;;;26.11;58.31;99363.72;4947680;28;20464;-75
2023/06/22 07:45:54;;;;;;;11.60;8.97;;;;;;;26.07;58.25;99358.97;4952908;28;20209;-77
2023/06/22 07:48:22;;;;;;;12.07;9.80;;;;;;;25.98;58.72;99348.41;4954892;28;20193;-76
2023/06/22 07:50:48;;;;;;;15.87;9.77;;;;;;;26.07;58.73;99322.13;4957572;28;20962;-76
2023/06/22 07:53:13;;;;;;;12.20;10.77;;;;;;;26.38;57.94;99316.16;4948448;28;20473;-76
2023/06/22 07:55:39;;;;;;;15.40;11.20;;;;;;;26.68;56.79;99321.97;4949324;28;20202;-76
2023/06/22 07:58:04;;;;;;;14.70;11.20;;;;;;;27.00;56.00;99300.53;4948171;28;20212;-77
2023/06/22 08:00:29;;;;;;;12.60;8.83;;;;;;;27.63;54.49;99337.66;4950960;28;20311;-76
2023/06/22 08:02:56;;;;;;;14.83;10.20;;;;;;;28.40;52.35;99300.59;4953315;28;20289;-78
2023/06/22 08:05:21;;;;;;;14.17;9.43;;;;;;;28.97;50.84;99299.69;4947956;28;20754;-77
2023/06/22 08:07:47;;;;;;;10.97;7.93;;;;;;;29.28;50.24;99318.50;4949580;28;20579;-76
2023/06/22 08:10:13;;;;;;;10.63;7.37;;;;;;;29.48;49.74;99330.94;4955009;28;20227;-76
2023/06/22 08:12:40;;;;;;;13.90;10.17;;;;;;;29.62;48.91;99299.94;4945856;28;20210;-76
2023/06/22 08:15:07;;;;;;;13.97;10.17;;;;;;;29.55;48.77;99294.63;4950454;28;20610;-77
2023/06/22 08:17:32;;;;;;;12.40;9.57;;;;;;;29.45;49.42;99304.34;4949167;28;21194;-76
2023/06/22 08:19:58;;;;;;;13.47;9.90;;;;;;;29.36;49.28;99284.91;4952592;28;20460;-79
2023/06/22 08:22:23;;;;;;;12.60;9.00;;;;;;;29.30;49.32;99269.53;4946159;28;20604;-77
2023/06/22 08:24:49;;;;;;;10.30;8.47;;;;;;;29.26;49.32;99277.31;4939511;28;20224;-76
2023/06/22 08:27:20;;;;;;;13.80;9.20;;;;;;;29.18;49.43;99264.09;4943407;28;20487;-76
2023/06/22 08:29:46;;;;;;;9.57;8.57;;;;;;;29.06;49.59;99263.22;4937800;28;20222;-76
2023/06/22 08:32:12;;;;;;;12.10;9.00;;;;;;;28.99;49.91;99252.44;4944811;28;20462;-76
2023/06/22 08:34:42;;;;;;;13.30;8.10;;;;;;;28.91;49.58;99250.03;4941895;28;20193;-78
2023/06/22 08:37:08;;;;;;;13.33;8.70;;;;;;;28.93;49.33;99255.22;4943107;28;20217;-76
2023/06/22 08:39:34;;;;;;;9.40;8.00;;;;;;;29.03;48.94;99244.69;4944986;28;20882;-76
2023/06/22 08:41:59;;;;;;;12.93;9.10;;;;;;;29.22;48.86;99235.56;4943179;28;20480;-76
2023/06/22 08:44:25;;;;;;;11.83;8.67;;;;;;;29.45;48.29;99229.41;4949703;28;20313;-76
2023/06/22 08:46:50;;;;;;;11.63;8.33;;;;;;;29.59;47.51;99211.06;4945738;28;20218;-78
2023/06/22 08:49:41;;;;;;;10.57;6.73;;;;;;;29.63;47.33;99209.56;5046326;23;20289;-77
2023/06/22 08:52:07;;;;;;;8.57;6.70;;;;;;;29.62;46.44;99210.59;4924820;29;20210;-76
2023/06/22 08:54:34;;;;;;;8.37;6.00;;;;;;;29.68;46.39;99196.19;4920266;29;20950;-75
2023/06/22 08:57:00;;;;;;;12.93;7.00;;;;;;;29.87;45.88;99190.72;4916350;29;20941;-81
2023/06/22 08:59:26;;;;;;;10.43;7.50;;;;;;;30.18;45.12;99186.81;4922255;29;20503;-76
2023/06/22 09:01:51;;;;;;;7.70;5.87;;;;;;;30.38;44.72;99191.91;4919121;28;20725;-75
2023/06/22 09:04:16;;;;;;;12.37;6.97;;;;;;;30.49;44.29;99199.22;4921997;28;20270;-75
2023/06/22 09:06:45;;;;;;;8.40;5.43;;;;;;;30.56;44.16;99196.38;4945211;28;20669;-78
2023/06/22 09:09:13;;;;;;;11.23;6.57;;;;;;;30.47;43.73;99187.78;4937635;28;20690;-76
2023/06/22 09:11:38;;;;;;;8.07;6.37;;;;;;;30.36;43.70;99173.19;4943967;28;20448;-79
2023/06/22 09:14:04;;;;;;;8.40;6.20;;;;;;;30.23;44.30;99169.91;4936305;28;20732;-77
2023/06/22 09:16:29;;;;;;;9.90;6.23;;;;;;;30.16;44.68;99178.94;4945297;28;20483;-75
2023/06/22 09:18:55;;;;;;;10.80;6.57;;;;;;;30.21;44.58;99184.44;4944922;28;20669;-77
2023/06/22 09:21:20;;;;;;;8.33;6.40;;;;;;;30.37;44.50;99172.09;4949583;28;20228;-79
2023/06/22 09:23:50;;;;;;;7.90;6.87;;;;;;;30.43;44.37;99168.47;4933837;28;20198;-76
2023/06/22 09:26:15;;;;;;;11.83;6.57;;;;;;;30.40;43.81;99168.09;4946384;28;20217;-75
2023/06/22 09:28:41;;;;;;;9.73;7.10;;;;;;;30.34;44.29;99155.50;4937620;28;20853;-79
2023/06/22 09:31:06;;;;;;;8.80;7.13;;;;;;;30.28;44.45;99156.47;4936607;28;20205;-78
2023/06/22 09:33:32;;;;;;;7.23;6.37;;;;;;;30.23;43.90;99154.47;4943504;28;20201;-76
2023/06/22 09:35:58;;;;;;;9.93;6.50;;;;;;;30.23;44.09;99153.66;4936904;28;20541;-76
2023/06/22 09:38:23;;;;;;;13.13;8.33;;;;;;;30.35;43.95;99147.16;4941684;28;20207;-79
2023/06/22 09:40:48;;;;;;;9.93;7.33;;;;;;;30.56;43.60;99142.97;4937105;28;20215;-76
2023/06/22 09:43:14;;;;;;;7.90;6.47;;;;;;;30.71;43.26;99145.19;4947263;28;20634;-76
2023/06/22 09:45:39;;;;;;;9.10;6.90;;;;;;;30.88;43.04;99139.84;4935883;28;20213;-77
2023/06/22 09:48:05;;;;;;;7.67;5.70;;;;;;;31.03;42.67;99142.03;4942985;28;20219;-76
2023/06/22 09:50:30;;;;;;;12.10;6.70;;;;;;;31.23;42.38;99153.25;4953611;28;20233;-77
2023/06/22 09:52:56;;;;;;;10.63;6.60;;;;;;;31.46;42.50;99165.06;4950117;28;20295;-77
2023/06/22 09:55:22;;;;;;;6.93;5.07;;;;;;;31.56;41.99;99159.00;4945690;28;20193;-80
2023/06/22 09:57:47;;;;;;;12.67;6.60;;;;;;;31.49;41.82;99130.13;4949163;28;20217;-79
2023/06/22 10:00:16;;;;;;;7.90;6.43;;;;;;;31.37;41.71;99123.94;4949683;28;20452;-76
2023/06/22 10:02:42;;;;;;;9.10;6.73;;;;;;;31.16;41.56;99121.91;4950619;28;20208;-77
2023/06/22 10:05:07;;;;;;;11.47;7.00;;;;;;;30.93;41.87;99120.97;4938267;28;20917;-76
2023/06/22 10:07:33;;;;;;;8.33;6.43;;;;;;;30.80;42.58;99124.78;4942727;28;20483;-76
2023/06/22 10:09:58;;;;;;;7.57;6.00;;;;;;;30.90;42.87;99132.31;4954628;28;20201;-77
2023/06/22 10:12:24;;;;;;;7.70;6.30;;;;;;;30.96;42.69;99131.31;4946153;28;20679;-81
2023/06/22 10:14:49;;;;;;;9.47;6.40;;;;;;;31.09;42.75;99122.91;4944372;28;20193;-80
2023/06/22 10:17:14;;;;;;;9.53;6.20;;;;;;;31.32;42.34;99118.41;4940858;28;20248;-80
2023/06/22 10:19:41;;;;;;;8.07;6.13;;;;;;;31.51;41.87;99110.88;4940110;28;20212;-77
2023/06/22 10:22:06;;;;;;;8.13;6.03;;;;;;;31.67;42.16;99109.22;4951120;28;20866;-76
2023/06/22 10:24:32;;;;;;;8.40;5.90;;;;;;;31.80;41.62;99114.31;4946830;28;20476;-76
2023/06/22 10:26:57;;;;;;;8.17;6.37;;;;;;;31.84;41.27;99104.63;4931717;28;20272;-76
2023/06/22 10:29:23;;;;;;;8.77;6.63;;;;;;;31.91;41.54;99088.13;4953199;28;20208;-76
2023/06/22 10:31:48;;;;;;;9.93;6.63;;;;;;;31.95;41.48;99102.91;4945228;28;20201;-76
2023/06/22 10:34:13;;;;;;;7.13;5.73;;;;;;;31.98;41.72;99099.69;4938733;28;20281;-78
2023/06/22 10:36:39;;;;;;;7.83;7.10;;;;;;;32.04;42.20;99127.75;4936863;28;20700;-81
2023/06/22 10:39:05;;;;;;;7.13;6.13;;;;;;;32.07;41.82;99146.25;4951707;28;20212;-84
2023/06/22 10:41:31;;;;;;;6.53;5.80;;;;;;;32.09;42.48;99155.00;4938004;28;20206;-75
2023/06/22 10:43:56;;;;;;;8.93;6.87;;;;;;;32.10;42.42;99148.47;4938155;28;20496;-76
2023/06/22 10:46:24;;;;;;;9.53;6.50;;;;;;;32.09;42.50;99158.53;4935664;28;20206;-76
2023/06/22 10:48:50;;;;;;;7.87;5.93;;;;;;;32.10;42.17;99162.06;4943304;28;20228;-76
2023/06/22 10:51:15;;;;;;;10.30;6.63;;;;;;;32.08;42.39;99170.47;4944393;28;20815;-81
2023/06/22 10:53:41;;;;;;;9.60;7.67;;;;;;;32.09;42.68;99182.97;4942978;28;20207;-81
2023/06/22 10:56:06;;;;;;;8.87;6.07;;;;;;;32.10;42.37;99194.66;4946981;28;20229;-81
2023/06/22 10:58:31;;;;;;;7.37;6.67;;;;;;;32.11;41.34;99196.34;4942004;28;20523;-77
2023/06/22 11:00:58;;;;;;;10.07;6.70;;;;;;;32.16;41.28;99196.38;4948717;28;20194;-78
2023/06/22 11:03:24;;;;;;;7.27;5.70;;;;;;;32.30;41.31;99197.69;4947130;28;20749;-75
2023/06/22 11:05:49;;;;;;;11.13;6.73;;;;;;;32.33;40.66;99183.59;4944385;28;20473;-78
2023/06/22 11:08:15;;;;;;;9.43;7.07;;;;;;;32.25;40.58;99189.47;4945166;28;20511;-79
2023/06/22 11:10:40;;;;;;;9.90;7.53;;;;;;;32.24;40.97;99195.13;4933531;28;20206;-75
2023/06/22 11:13:09;;;;;;;7.90;6.23;;;;;;;32.38;40.85;99177.44;4943019;28;20221;-76
2023/06/22 11:15:35;;;;;;;14.00;6.87;;;;;;;32.56;40.72;99173.59;4948324;28;20213;-79
2023/06/22 11:18:00;;;;;;;10.73;7.40;;;;;;;32.74;40.61;99172.47;4954102;28;20562;-78
2023/06/22 11:20:26;;;;;;;9.27;6.93;;;;;;;32.88;40.43;99170.19;4941233;28;20543;-76
2023/06/22 11:22:52;;;;;;;8.57;6.67;;;;;;;32.93;40.50;99192.84;4935858;28;20748;-75
2023/06/22 11:25:17;;;;;;;8.17;6.20;;;;;;;33.03;40.61;99187.53;4954908;28;20270;-79